Time;durP1;ratioP1;P1;durP2;ratioP2;P2;SDS_P1;SDS_P2;PMS_P1;PMS_P2;Temp;Humidity;BMP_temperature;BMP_pressure;BME280_temperature;BME280_humidity;BME280_pressure;Samples;Min_cycle;Max_cycle;Signal;HPM_P1;HPM_P2
2023/06/21 00:00:45;;;;;;;10.27;9.17;;;25.30;54.10;;;;;;20399;6741;280054;-80
2023/06/21 00:03:19;;;;;;;10.63;9.48;;;25.40;54.20;;;;;;20672;6735;308866;-79
2023/06/21 00:05:56;;;;;;;10.47;9.23;;;25.70;53.90;;;;;;20813;6749;117287;-79
2023/06/21 00:08:32;;;;;;;10.90;9.27;;;25.50;54.00;;;;;;20863;6742;117215;-78
2023/06/21 00:11:07;;;;;;;11.87;10.07;;;25.10;54.50;;;;;;20759;6768;118841;-79
2023/06/21 00:13:42;;;;;;;20.27;14.23;;;24.80;55.10;;;;;;20552;6770;278701;-79
2023/06/21 00:16:18;;;;;;;18.23;13.40;;;25.00;55.70;;;;;;20656;6748;309760;-79
2023/06/21 00:18:54;;;;;;;14.27;10.97;;;25.20;54.80;;;;;;20792;6748;117790;-79
2023/06/21 00:21:30;;;;;;;10.23;9.17;;;25.20;54.80;;;;;;20874;6738;117409;-79
2023/06/21 00:24:09;;;;;;;10.63;8.90;;;24.90;55.20;;;;;;20834;6759;117716;-79
2023/06/21 00:26:44;;;;;;;11.27;10.23;;;24.60;55.60;;;;;;20652;6733;280964;-79
2023/06/21 00:29:21;;;;;;;11.25;10.07;;;24.80;55.50;;;;;;20595;6743;278139;-79
2023/06/21 00:31:58;;;;;;;11.57;9.47;;;25.20;54.70;;;;;;20700;6723;307066;-80
2023/06/21 00:34:34;;;;;;;9.33;8.37;;;25.40;53.60;;;;;;20917;6717;117037;-78
2023/06/21 00:37:11;;;;;;;11.17;8.13;;;25.20;53.80;;;;;;20847;6737;117266;-77
2023/06/21 00:39:44;;;;;;;10.30;9.27;;;25.00;54.30;;;;;;20541;6734;310347;-79
2023/06/21 00:42:20;;;;;;;14.40;8.70;;;24.90;54.20;;;;;;20874;6727;116669;-77
2023/06/21 00:44:55;;;;;;;8.67;7.97;;;24.80;54.20;;;;;;20868;6732;126598;-77
2023/06/21 00:47:33;;;;;;;10.37;8.60;;;24.70;54.70;;;;;;20570;6762;279827;-79
2023/06/21 00:50:10;;;;;;;9.35;8.40;;;24.70;54.60;;;;;;20530;6728;307278;-79
2023/06/21 00:52:47;;;;;;;10.37;8.70;;;25.20;53.90;;;;;;20827;6732;117856;-77
2023/06/21 00:55:23;;;;;;;9.90;8.90;;;25.00;53.80;;;;;;20670;6720;278540;-78
2023/06/21 00:57:58;;;;;;;11.20;9.10;;;25.20;53.60;;;;;;20692;6720;308580;-78
2023/06/21 01:00:37;;;;;;;9.33;8.40;;;25.40;53.30;;;;;;20690;6727;117623;-78
2023/06/21 01:03:09;;;;;;;11.93;8.70;;;25.20;53.50;;;;;;20815;6746;120554;-80
2023/06/21 01:06:02;;;;;;;10.97;9.80;;;24.90;54.10;;;;;;20571;6767;310591;-78
2023/06/21 01:08:56;;;;;;;11.37;10.07;;;25.00;54.40;;;;;;20827;6746;122239;-78
2023/06/21 01:11:32;;;;;;;10.13;9.33;;;24.80;54.40;;;;;;20741;6818;117924;-78
2023/06/21 01:14:24;;;;;;;11.00;10.07;;;24.50;54.90;;;;;;19924;6815;312731;-80
2023/06/21 01:17:01;;;;;;;10.00;9.07;;;24.60;54.90;;;;;;20738;6765;117591;-77
2023/06/21 01:19:50;;;;;;;9.30;8.37;;;24.30;55.20;;;;;;20716;6760;117695;-77
2023/06/21 01:22:23;;;;;;;10.82;9.73;;;24.30;55.20;;;;;;20600;6747;307694;-80
2023/06/21 01:25:33;;;;;;;10.30;9.20;;;24.60;55.40;;;;;;20760;6762;121405;-79
2023/06/21 01:28:37;;;;;;;10.37;9.10;;;24.50;55.10;;;;;;20821;6754;117653;-78
2023/06/21 01:31:15;;;;;;;9.00;8.07;;;24.20;55.40;;;;;;20808;6754;119216;-78
2023/06/21 01:33:49;;;;;;;10.20;8.43;;;24.00;55.80;;;;;;20771;6769;117136;-78
2023/06/21 01:36:24;;;;;;;9.93;8.93;;;23.90;55.90;;;;;;20829;6750;117565;-79
2023/06/21 01:39:00;;;;;;;13.37;9.50;;;23.80;56.20;;;;;;20778;6752;118144;-78
2023/06/21 01:41:35;;;;;;;12.13;10.63;;;23.80;56.50;;;;;;20657;6732;307484;-79
2023/06/21 01:44:12;;;;;;;10.57;9.47;;;24.10;57.00;;;;;;20881;6732;117720;-79
2023/06/21 01:46:46;;;;;;;11.20;10.10;;;24.20;56.60;;;;;;20637;6734;305119;-78
2023/06/21 01:49:22;;;;;;;11.73;9.07;;;24.50;56.90;;;;;;20735;6749;120370;-80
2023/06/21 01:51:59;;;;;;;11.07;10.00;;;24.50;56.50;;;;;;20644;6738;305449;-78
2023/06/21 01:54:34;;;;;;;11.40;10.40;;;24.60;55.90;;;;;;20579;6759;308192;-78
2023/06/21 01:57:10;;;;;;;11.43;10.30;;;25.00;55.40;;;;;;20637;6744;306502;-79
2023/06/21 01:59:45;;;;;;;10.73;9.82;;;25.20;54.80;;;;;;20607;6729;306643;-80
2023/06/21 02:02:21;;;;;;;10.53;9.63;;;25.40;54.60;;;;;;20920;6702;117069;-78
2023/06/21 02:04:57;;;;;;;10.03;9.13;;;25.10;54.70;;;;;;20808;6761;117267;-79
2023/06/21 02:07:34;;;;;;;10.93;9.93;;;24.70;55.30;;;;;;20650;6749;280752;-79
2023/06/21 02:10:09;;;;;;;12.23;10.90;;;24.80;55.50;;;;;;20486;6752;309527;-80
2023/06/21 02:12:48;;;;;;;11.65;10.45;;;25.10;54.60;;;;;;20607;6761;336665;-78
2023/06/21 02:15:23;;;;;;;11.05;9.95;;;25.30;54.10;;;;;;20632;6744;277292;-79
2023/06/21 02:17:59;;;;;;;11.20;9.80;;;25.40;53.70;;;;;;20834;6743;117235;-77
2023/06/21 02:20:34;;;;;;;11.23;10.03;;;25.10;54.00;;;;;;20497;6736;302655;-77
2023/06/21 02:23:13;;;;;;;11.00;9.85;;;25.00;54.00;;;;;;20550;6822;279106;-78
2023/06/21 02:25:46;;;;;;;10.10;8.50;;;25.20;53.90;;;;;;20853;6745;117151;-78
2023/06/21 02:28:21;;;;;;;11.30;8.33;;;24.90;54.20;;;;;;20852;6749;117193;-79
2023/06/21 02:30:59;;;;;;;8.47;7.70;;;24.50;54.50;;;;;;20817;6746;117366;-78
2023/06/21 02:33:32;;;;;;;10.97;8.60;;;24.20;54.90;;;;;;20677;6746;305909;-82
2023/06/21 02:36:08;;;;;;;10.00;8.98;;;24.30;54.70;;;;;;20658;6726;306197;-78
2023/06/21 02:38:44;;;;;;;9.85;9.07;;;24.70;54.30;;;;;;20641;6738;340395;-79
2023/06/21 02:41:19;;;;;;;10.73;9.63;;;24.90;54.10;;;;;;20633;6745;293180;-77
2023/06/21 02:43:56;;;;;;;11.55;10.65;;;25.00;54.00;;;;;;20737;6724;314332;-78
2023/06/21 02:46:31;;;;;;;10.47;9.43;;;25.00;54.40;;;;;;20969;6722;117471;-77
2023/06/21 02:49:07;;;;;;;9.43;8.50;;;24.70;54.60;;;;;;20857;6711;117303;-78
2023/06/21 02:51:42;;;;;;;11.33;10.27;;;24.30;55.40;;;;;;20704;6714;308845;-79
2023/06/21 02:54:19;;;;;;;11.77;10.57;;;24.20;56.00;;;;;;20877;6734;118474;-78
2023/06/21 02:56:55;;;;;;;11.07;9.93;;;24.20;56.00;;;;;;20815;6735;127763;-79
2023/06/21 02:59:30;;;;;;;11.00;9.93;;;23.90;56.40;;;;;;20772;6744;117511;-81
2023/06/21 03:02:06;;;;;;;12.50;11.40;;;23.80;57.30;;;;;;20711;6721;277024;-81
2023/06/21 03:04:44;;;;;;;12.53;11.43;;;23.90;57.20;;;;;;20713;6723;282845;-78
2023/06/21 03:07:23;;;;;;;14.23;10.57;;;24.20;56.80;;;;;;20960;6712;122148;-78
2023/06/21 03:09:57;;;;;;;13.52;12.13;;;24.00;56.70;;;;;;20629;6712;278721;-79
2023/06/21 03:12:35;;;;;;;12.40;10.60;;;24.10;56.90;;;;;;20975;6721;117837;-79
2023/06/21 03:15:11;;;;;;;11.50;10.40;;;24.00;57.00;;;;;;20666;6733;297117;-76
2023/06/21 03:17:46;;;;;;;13.20;10.50;;;24.10;57.20;;;;;;20898;6743;125171;-76
2023/06/21 03:20:24;;;;;;;13.10;10.43;;;24.10;57.10;;;;;;20812;6732;120505;-75
2023/06/21 03:23:00;;;;;;;11.13;9.97;;;23.90;57.40;;;;;;20771;6762;117765;-75
2023/06/21 03:25:36;;;;;;;11.93;9.80;;;23.70;57.60;;;;;;20796;6762;117329;-76
2023/06/21 03:28:09;;;;;;;12.23;10.30;;;23.50;57.90;;;;;;20847;6749;117357;-76
2023/06/21 03:30:45;;;;;;;11.10;9.93;;;23.40;57.80;;;;;;20695;6732;120693;-76
2023/06/21 03:33:22;;;;;;;11.43;10.33;;;23.40;58.00;;;;;;20868;6732;117469;-76
2023/06/21 03:35:57;;;;;;;12.93;11.85;;;23.30;58.10;;;;;;20654;6732;306407;-75
2023/06/21 03:38:33;;;;;;;13.00;11.63;;;23.70;58.50;;;;;;20706;6717;277247;-75
2023/06/21 03:41:13;;;;;;;11.43;9.50;;;24.20;57.50;;;;;;20898;6717;117189;-75
2023/06/21 03:43:46;;;;;;;11.50;9.60;;;24.00;57.40;;;;;;20923;6717;117555;-75
2023/06/21 03:46:23;;;;;;;11.40;10.40;;;24.00;57.40;;;;;;20669;6727;306610;-78
2023/06/21 03:48:58;;;;;;;12.07;9.33;;;24.20;57.50;;;;;;20837;6727;117682;-75
2023/06/21 03:51:35;;;;;;;11.60;10.53;;;24.30;57.20;;;;;;20604;6747;309597;-74
2023/06/21 03:54:12;;;;;;;11.50;10.43;;;24.30;57.20;;;;;;20901;6721;118238;-74
2023/06/21 03:56:49;;;;;;;11.80;10.60;;;24.10;57.40;;;;;;20739;6765;118209;-74
2023/06/21 03:59:25;;;;;;;16.13;11.93;;;24.00;57.30;;;;;;20720;6765;117673;-74
2023/06/21 04:02:03;;;;;;;14.43;11.30;;;23.80;57.60;;;;;;20895;6724;117217;-74
2023/06/21 04:04:39;;;;;;;14.10;12.70;;;24.10;58.20;;;;;;20696;6721;307418;-74
2023/06/21 04:07:17;;;;;;;13.20;12.00;;;24.00;57.60;;;;;;20725;6721;304517;-74
2023/06/21 04:09:51;;;;;;;13.55;12.27;;;24.50;56.80;;;;;;20466;6763;311730;-74
2023/06/21 04:12:30;;;;;;;14.27;12.73;;;24.90;55.90;;;;;;20642;6746;278202;-74
2023/06/21 04:15:09;;;;;;;12.83;11.50;;;25.10;55.70;;;;;;20931;6719;120048;-74
2023/06/21 04:17:43;;;;;;;10.93;10.03;;;24.50;55.90;;;;;;20913;6712;117742;-74
2023/06/21 04:20:21;;;;;;;12.40;11.30;;;24.50;55.80;;;;;;20469;6741;310645;-74
2023/06/21 04:22:53;;;;;;;11.07;10.10;;;24.60;56.00;;;;;;20827;6740;117733;-75
2023/06/21 04:25:29;;;;;;;11.13;10.03;;;24.50;56.00;;;;;;20618;6742;305046;-76
2023/06/21 04:28:06;;;;;;;11.75;10.10;;;25.00;54.80;;;;;;20608;6759;338698;-80
2023/06/21 04:30:41;;;;;;;10.10;9.30;;;25.00;54.00;;;;;;20679;6759;119429;-79
2023/06/21 04:33:17;;;;;;;11.07;10.13;;;24.90;54.20;;;;;;20594;6757;311342;-78
2023/06/21 04:35:52;;;;;;;11.27;10.20;;;24.90;55.00;;;;;;20512;6778;308303;-77
2023/06/21 04:38:29;;;;;;;14.83;10.50;;;24.90;55.60;;;;;;20747;6771;117446;-77
2023/06/21 04:41:04;;;;;;;12.10;10.97;;;24.80;54.80;;;;;;20565;6767;305764;-77
2023/06/21 04:43:42;;;;;;;9.90;9.03;;;25.00;55.30;;;;;;20875;6635;117301;-77
2023/06/21 04:46:18;;;;;;;11.60;10.50;;;24.60;55.80;;;;;;20864;6758;117162;-76
2023/06/21 04:48:53;;;;;;;11.03;10.03;;;24.50;55.70;;;;;;20880;6715;123834;-78
2023/06/21 04:51:28;;;;;;;10.93;9.87;;;24.40;56.10;;;;;;20868;6730;117508;-77
2023/06/21 04:54:06;;;;;;;11.57;10.47;;;24.20;56.20;;;;;;20611;6754;277414;-78
2023/06/21 04:56:40;;;;;;;12.75;11.45;;;24.40;56.50;;;;;;20633;6744;309742;-77
2023/06/21 04:59:15;;;;;;;12.60;11.23;;;24.80;55.90;;;;;;20682;6714;279847;-77
2023/06/21 05:01:51;;;;;;;12.43;11.13;;;25.10;55.30;;;;;;20708;6714;275344;-80
2023/06/21 05:04:28;;;;;;;13.13;11.90;;;25.50;54.20;;;;;;20694;6714;309006;-78
2023/06/21 05:07:05;;;;;;;13.70;10.63;;;25.50;54.10;;;;;;20890;6714;117547;-78
2023/06/21 05:09:43;;;;;;;11.73;10.20;;;25.20;54.50;;;;;;20838;6714;117843;-77
2023/06/21 05:12:16;;;;;;;13.33;12.03;;;25.10;56.20;;;;;;20700;6713;276927;-78
2023/06/21 05:14:52;;;;;;;13.93;12.47;;;25.00;55.30;;;;;;20694;6714;305987;-78
2023/06/21 05:17:27;;;;;;;12.60;11.40;;;25.40;54.80;;;;;;20922;6714;118667;-79
2023/06/21 05:20:04;;;;;;;11.40;10.57;;;25.40;54.80;;;;;;20836;6714;117883;-78
2023/06/21 05:22:41;;;;;;;13.53;12.23;;;25.10;55.20;;;;;;20729;6714;278099;-77
2023/06/21 05:25:14;;;;;;;13.52;12.00;;;25.30;55.20;;;;;;20733;6714;274469;-78
2023/06/21 05:27:50;;;;;;;13.40;12.00;;;25.60;54.60;;;;;;20729;6714;284810;-76
2023/06/21 05:30:25;;;;;;;13.53;12.10;;;25.90;54.00;;;;;;20772;6719;119376;-78
2023/06/21 05:33:01;;;;;;;13.13;11.97;;;25.50;54.40;;;;;;20917;6719;117489;-78
2023/06/21 05:35:37;;;;;;;12.60;10.73;;;25.50;54.40;;;;;;20910;6737;118779;-78
2023/06/21 05:38:13;;;;;;;13.30;11.90;;;25.30;54.70;;;;;;20734;6719;284033;-82
2023/06/21 05:40:48;;;;;;;15.40;13.10;;;25.50;53.90;;;;;;20535;6719;279001;-78
2023/06/21 05:43:24;;;;;;;13.30;12.00;;;25.90;52.70;;;;;;20947;6714;117495;-79
2023/06/21 05:45:59;;;;;;;14.40;12.97;;;26.00;52.80;;;;;;20728;6714;305479;-76
2023/06/21 05:48:35;;;;;;;13.10;11.90;;;26.10;52.50;;;;;;20726;6714;277654;-77
2023/06/21 05:51:11;;;;;;;12.37;11.27;;;26.40;51.90;;;;;;20931;6714;119309;-76
2023/06/21 05:53:49;;;;;;;13.37;11.83;;;26.30;52.10;;;;;;20945;6714;118974;-76
2023/06/21 05:56:24;;;;;;;12.27;11.07;;;26.10;52.60;;;;;;20891;6734;117432;-76
2023/06/21 05:58:58;;;;;;;14.30;12.80;;;26.20;53.10;;;;;;20587;6739;313116;-79
2023/06/21 06:01:35;;;;;;;13.37;11.97;;;26.10;53.00;;;;;;20857;6743;117550;-77
2023/06/21 06:04:10;;;;;;;14.40;12.88;;;26.20;53.10;;;;;;20642;6743;277734;-77
2023/06/21 06:06:46;;;;;;;13.30;12.20;;;26.50;52.70;;;;;;20864;6736;118489;-78
2023/06/21 06:09:22;;;;;;;15.10;13.50;;;26.50;52.70;;;;;;20558;6755;283467;-78
2023/06/21 06:11:57;;;;;;;14.13;12.70;;;26.70;52.20;;;;;;20824;6755;118507;-79
2023/06/21 06:14:33;;;;;;;13.97;12.73;;;26.80;52.60;;;;;;20638;6743;306305;-79
2023/06/21 06:17:08;;;;;;;14.13;12.83;;;27.20;52.20;;;;;;20651;6735;307343;-81
2023/06/21 06:19:44;;;;;;;12.47;11.43;;;28.00;50.60;;;;;;20748;6755;118133;-77
2023/06/21 06:22:19;;;;;;;13.03;11.83;;;28.40;50.80;;;;;;20598;6755;307772;-77
2023/06/21 06:24:57;;;;;;;13.90;12.73;;;29.70;46.00;;;;;;20586;6755;277669;-81
2023/06/21 06:27:33;;;;;;;12.73;11.43;;;29.80;46.80;;;;;;20807;6755;120258;-77
2023/06/21 06:30:10;;;;;;;12.63;11.55;;;29.80;46.80;;;;;;20522;6735;338554;-78
2023/06/21 06:32:45;;;;;;;12.70;11.60;;;30.20;45.30;;;;;;20595;6751;280182;-81
2023/06/21 06:35:21;;;;;;;13.03;11.60;;;30.90;45.00;;;;;;20866;6739;117488;-79
2023/06/21 06:37:56;;;;;;;11.70;10.27;;;30.90;45.00;;;;;;20913;6743;117286;-79
2023/06/21 06:40:33;;;;;;;14.60;10.53;;;30.80;45.20;;;;;;20754;6743;117627;-77
2023/06/21 06:43:08;;;;;;;13.80;12.10;;;30.80;45.40;;;;;;20640;6744;307734;-80
2023/06/21 06:45:44;;;;;;;13.13;11.30;;;31.00;43.30;;;;;;20809;6755;117508;-82
2023/06/21 06:48:19;;;;;;;12.53;11.43;;;31.00;43.80;;;;;;20619;6755;283644;-77
2023/06/21 06:50:55;;;;;;;12.90;11.70;;;31.30;43.30;;;;;;20448;6798;302998;-78
2023/06/21 06:53:31;;;;;;;11.43;10.40;;;31.60;42.40;;;;;;20858;6750;118986;-79
2023/06/21 06:56:06;;;;;;;11.27;10.23;;;31.60;42.90;;;;;;20875;6739;117275;-77
2023/06/21 06:58:42;;;;;;;12.30;11.20;;;31.40;43.30;;;;;;20577;6754;306709;-78
2023/06/21 07:01:20;;;;;;;11.80;10.70;;;31.70;41.50;;;;;;20649;6736;293254;-80
2023/06/21 07:03:54;;;;;;;13.43;10.70;;;32.00;41.60;;;;;;20902;6742;117202;-78
2023/06/21 07:06:30;;;;;;;12.47;11.13;;;32.00;41.50;;;;;;20900;6727;119743;-79
2023/06/21 07:09:06;;;;;;;11.10;10.00;;;31.80;41.90;;;;;;20836;6727;119371;-80
2023/06/21 07:11:41;;;;;;;11.63;10.63;;;31.70;42.10;;;;;;20745;6726;279136;-78
2023/06/21 07:14:16;;;;;;;10.87;10.07;;;32.00;40.70;;;;;;20663;6750;277318;-79
2023/06/21 07:16:52;;;;;;;10.57;9.77;;;32.50;39.30;;;;;;20552;6752;310709;-77
2023/06/21 07:19:28;;;;;;;12.63;10.27;;;33.00;39.30;;;;;;20505;6757;310598;-80
2023/06/21 07:22:03;;;;;;;10.60;9.70;;;33.30;38.80;;;;;;20888;6745;117270;-79
2023/06/21 07:24:39;;;;;;;11.00;10.00;;;33.20;38.70;;;;;;20879;6745;118875;-80
2023/06/21 07:27:14;;;;;;;11.27;10.30;;;32.80;39.00;;;;;;20668;6745;281345;-77
2023/06/21 07:29:50;;;;;;;11.17;10.07;;;32.90;37.90;;;;;;20593;6734;278617;-80
2023/06/21 07:32:26;;;;;;;11.07;10.10;;;33.10;38.70;;;;;;20663;6735;284749;-77
2023/06/21 07:35:01;;;;;;;10.90;9.87;;;33.20;38.20;;;;;;20887;6732;118747;-77
2023/06/21 07:37:37;;;;;;;11.03;10.10;;;32.90;38.50;;;;;;20646;6738;308549;-80
2023/06/21 07:40:12;;;;;;;9.50;8.80;;;32.80;38.80;;;;;;20800;6723;117894;-77
2023/06/21 07:42:49;;;;;;;10.50;9.57;;;32.70;39.20;;;;;;20909;6717;120674;-77
2023/06/21 07:45:25;;;;;;;11.43;10.37;;;32.50;39.10;;;;;;20710;6717;307589;-77
2023/06/21 07:48:01;;;;;;;10.70;9.68;;;32.50;38.30;;;;;;20704;6717;336644;-78
2023/06/21 07:50:37;;;;;;;12.43;9.93;;;32.80;39.40;;;;;;20760;6716;119154;-77
2023/06/21 07:53:13;;;;;;;12.00;9.80;;;32.70;38.80;;;;;;20904;6716;116932;-77
2023/06/21 07:55:49;;;;;;;11.17;10.17;;;32.40;39.20;;;;;;20621;6748;277438;-78
2023/06/21 07:58:25;;;;;;;11.00;10.10;;;32.30;39.20;;;;;;20567;6765;307621;-78
2023/06/21 08:01:00;;;;;;;10.60;9.63;;;32.40;39.60;;;;;;20822;6752;118868;-80
2023/06/21 08:03:39;;;;;;;10.90;10.00;;;32.00;39.80;;;;;;20876;6754;118171;-78
2023/06/21 08:06:14;;;;;;;10.77;9.77;;;31.60;40.50;;;;;;20661;6758;277543;-78
2023/06/21 08:08:50;;;;;;;10.70;9.70;;;31.60;40.30;;;;;;20569;6756;280944;-79
2023/06/21 08:11:26;;;;;;;10.00;9.13;;;31.80;40.30;;;;;;20864;6740;117335;-79
2023/06/21 08:14:02;;;;;;;11.13;10.10;;;31.60;40.40;;;;;;20672;6743;311424;-80
2023/06/21 08:16:37;;;;;;;10.63;9.73;;;31.50;40.30;;;;;;20700;6724;309080;-78
2023/06/21 08:19:13;;;;;;;10.60;9.70;;;31.60;40.70;;;;;;20643;6725;284168;-78
2023/06/21 08:21:50;;;;;;;10.40;9.50;;;31.40;40.20;;;;;;20705;6726;306513;-76
2023/06/21 08:24:25;;;;;;;11.17;10.20;;;31.40;40.20;;;;;;20698;6726;291879;-76
2023/06/21 08:27:00;;;;;;;10.23;9.43;;;31.30;40.80;;;;;;20885;6741;118413;-76
2023/06/21 08:29:36;;;;;;;9.03;8.27;;;30.80;41.20;;;;;;20726;6810;117631;-77
2023/06/21 08:32:12;;;;;;;11.07;9.93;;;30.20;41.80;;;;;;20580;6765;278262;-75
2023/06/21 08:34:47;;;;;;;10.63;9.73;;;30.00;42.50;;;;;;20621;6737;306316;-75
2023/06/21 08:37:25;;;;;;;9.80;9.10;;;30.10;43.40;;;;;;20853;6750;120897;-75
2023/06/21 08:39:58;;;;;;;10.80;9.70;;;29.70;44.00;;;;;;20711;6750;117774;-76
2023/06/21 08:42:35;;;;;;;16.80;10.23;;;29.20;45.50;;;;;;20842;6750;117761;-76
2023/06/21 08:45:12;;;;;;;12.57;11.43;;;28.70;46.70;;;;;;20612;6749;277617;-78
2023/06/21 08:47:48;;;;;;;11.73;10.67;;;28.20;49.20;;;;;;20818;6750;117320;-78
2023/06/21 08:50:26;;;;;;;12.63;11.30;;;28.20;49.20;;;;;;20703;6733;118976;-78
2023/06/21 08:53:02;;;;;;;13.03;11.67;;;27.60;49.60;;;;;;20886;6733;117691;-78
2023/06/21 08:55:41;;;;;;;11.20;10.17;;;27.00;50.60;;;;;;20826;6752;118707;-78
2023/06/21 08:58:16;;;;;;;11.63;10.50;;;26.50;51.20;;;;;;20803;6763;123930;-79
2023/06/21 09:00:53;;;;;;;12.27;11.27;;;26.00;52.00;;;;;;20631;6815;117682;-79
2023/06/21 09:03:47;;;;;;;14.10;12.80;;;25.40;53.40;;;;;;20563;6769;309131;-78
2023/06/21 09:06:22;;;;;;;14.70;13.33;;;25.40;57.50;;;;;;20601;6759;278949;-78
2023/06/21 09:08:55;;;;;;;13.43;11.90;;;25.60;57.60;;;;;;20833;6734;151582;-78
2023/06/21 09:11:30;;;;;;;14.30;11.17;;;25.20;57.40;;;;;;20936;6719;117229;-78
2023/06/21 09:14:06;;;;;;;14.37;11.53;;;24.80;58.40;;;;;;20923;6719;117337;-78
2023/06/21 09:16:43;;;;;;;10.87;9.87;;;24.50;59.20;;;;;;20933;6719;117546;-78
2023/06/21 09:19:18;;;;;;;10.67;9.60;;;24.20;59.40;;;;;;20851;6725;118720;-75
2023/06/21 09:21:54;;;;;;;10.30;9.50;;;23.70;60.60;;;;;;20904;6730;120159;-74
2023/06/21 09:24:30;;;;;;;10.63;9.67;;;23.70;60.00;;;;;;20705;6729;306166;-76
2023/06/21 09:27:06;;;;;;;10.33;9.43;;;23.90;61.50;;;;;;20812;6743;119388;-81
2023/06/21 09:29:41;;;;;;;10.70;9.70;;;23.90;61.10;;;;;;20580;6730;284199;-76
2023/06/21 09:32:17;;;;;;;9.63;8.83;;;24.10;60.30;;;;;;20844;6740;121345;-80
2023/06/21 09:34:52;;;;;;;11.17;9.97;;;24.10;60.00;;;;;;20619;6739;307723;-78
2023/06/21 09:37:35;;;;;;;9.43;8.63;;;24.10;60.20;;;;;;20847;6744;118586;-80
2023/06/21 09:40:10;;;;;;;8.83;8.03;;;24.00;60.60;;;;;;20721;6734;117546;-77
2023/06/21 09:42:49;;;;;;;10.60;8.67;;;23.70;61.60;;;;;;20843;6737;119988;-79
2023/06/21 09:45:25;;;;;;;9.37;8.53;;;23.50;62.20;;;;;;20816;6746;117509;-80
2023/06/21 09:48:00;;;;;;;9.80;8.43;;;23.40;62.50;;;;;;20814;6754;117183;-78
2023/06/21 09:50:41;;;;;;;10.07;9.20;;;23.30;62.90;;;;;;20530;6730;308521;-78
2023/06/21 09:53:17;;;;;;;10.57;9.50;;;23.70;62.10;;;;;;20716;6716;276563;-82
2023/06/21 09:55:55;;;;;;;9.30;7.90;;;24.10;60.20;;;;;;20931;6715;117121;-77
2023/06/21 09:58:33;;;;;;;10.03;9.00;;;24.00;61.20;;;;;;20703;6718;307348;-77
2023/06/21 10:01:08;;;;;;;15.10;8.70;;;24.00;61.20;;;;;;20921;6712;117454;-80
2023/06/21 10:03:43;;;;;;;11.63;8.43;;;23.90;61.40;;;;;;20918;6714;120121;-76
2023/06/21 10:06:19;;;;;;;9.50;8.53;;;23.70;62.50;;;;;;20923;6714;117006;-77
2023/06/21 10:08:54;;;;;;;10.50;9.40;;;23.50;63.50;;;;;;20641;6712;307862;-76
2023/06/21 10:11:30;;;;;;;9.67;8.87;;;23.80;64.50;;;;;;20885;6725;117115;-74
2023/06/21 10:14:05;;;;;;;9.40;8.53;;;23.90;63.70;;;;;;20672;6725;310450;-74
2023/06/21 10:16:41;;;;;;;10.13;7.07;;;24.10;62.70;;;;;;20851;6730;118227;-75
2023/06/21 10:19:17;;;;;;;8.70;5.53;;;24.10;62.50;;;;;;20845;6727;118426;-76
2023/06/21 10:22:04;;;;;;;6.97;6.20;;;23.80;62.40;;;;;;20720;6712;277217;-74
2023/06/21 10:24:47;;;;;;;7.23;6.30;;;24.00;60.70;;;;;;20741;6712;308708;-76
2023/06/21 10:27:24;;;;;;;7.35;6.65;;;24.60;58.40;;;;;;20719;6712;306010;-74
2023/06/21 10:30:00;;;;;;;8.43;5.57;;;24.60;58.40;;;;;;20815;6712;117181;-80
2023/06/21 10:32:38;;;;;;;8.07;6.80;;;24.50;59.20;;;;;;20679;6727;276258;-76
2023/06/21 10:35:12;;;;;;;8.13;7.10;;;24.50;59.60;;;;;;20629;6742;328707;-77
2023/06/21 10:38:06;;;;;;;9.43;7.00;;;24.80;59.40;;;;;;20649;6742;309002;-78
2023/06/21 10:40:42;;;;;;;7.27;6.30;;;25.00;59.10;;;;;;20683;6783;151151;-79
2023/06/21 10:43:17;;;;;;;6.73;5.33;;;24.80;59.80;;;;;;20886;6732;118324;-76
2023/06/21 10:45:53;;;;;;;9.70;6.63;;;24.60;60.60;;;;;;20707;6719;282890;-75
2023/06/21 10:48:31;;;;;;;10.18;7.32;;;24.80;60.40;;;;;;20662;6734;277468;-75
2023/06/21 10:51:13;;;;;;;7.63;6.87;;;25.20;60.60;;;;;;20673;6717;275602;-75
2023/06/21 10:53:40;;;;;;;10.03;7.10;;;25.50;58.60;;;;;;20677;6730;278797;-75
2023/06/21 10:56:17;;;;;;;11.17;7.20;;;26.10;58.30;;;;;;20670;6726;302034;-75
2023/06/21 10:58:52;;;;;;;10.77;6.33;;;26.10;58.20;;;;;;20820;6726;120262;-75
2023/06/21 11:01:29;;;;;;;8.87;6.13;;;25.90;59.10;;;;;;20872;6726;117078;-73
2023/06/21 11:04:06;;;;;;;9.98;6.70;;;25.80;59.00;;;;;;20701;6711;312739;-75
2023/06/21 11:06:43;;;;;;;8.90;6.27;;;26.10;57.90;;;;;;20921;6711;122720;-74
2023/06/21 11:09:18;;;;;;;8.47;6.40;;;26.20;58.80;;;;;;20876;6710;117312;-75
2023/06/21 11:11:53;;;;;;;8.27;5.87;;;26.20;59.20;;;;;;20896;6710;117291;-75
2023/06/21 11:14:28;;;;;;;7.47;6.87;;;26.10;59.30;;;;;;20924;6767;116775;-75
2023/06/21 11:17:07;;;;;;;8.60;7.43;;;26.10;59.60;;;;;;20638;6725;287925;-77
2023/06/21 11:19:43;;;;;;;8.43;7.62;;;26.50;57.80;;;;;;20536;6733;311596;-75
2023/06/21 11:22:19;;;;;;;9.83;7.53;;;27.00;55.20;;;;;;20813;6749;117375;-76
2023/06/21 11:25:00;;;;;;;11.50;7.70;;;27.50;54.30;;;;;;20635;6733;291674;-78
2023/06/21 11:27:34;;;;;;;9.03;6.40;;;27.40;54.20;;;;;;20867;6734;120539;-74
2023/06/21 11:30:12;;;;;;;8.33;5.80;;;27.50;55.10;;;;;;20691;6734;119878;-76
2023/06/21 11:32:55;;;;;;;10.27;7.20;;;27.50;55.60;;;;;;20838;6748;118141;-75
2023/06/21 11:35:49;;;;;;;10.40;6.23;;;27.50;56.10;;;;;;20828;6748;120174;-73
2023/06/21 11:38:24;;;;;;;7.97;5.73;;;27.60;56.80;;;;;;20529;6805;118373;-76
2023/06/21 11:40:59;;;;;;;8.87;6.57;;;27.60;56.50;;;;;;20626;6735;276730;-78
2023/06/21 11:43:37;;;;;;;8.47;7.67;;;28.00;52.90;;;;;;20668;6732;314371;-82
2023/06/21 11:46:10;;;;;;;11.53;6.10;;;28.50;51.60;;;;;;20796;6762;120270;-76
2023/06/21 11:48:46;;;;;;;8.27;6.77;;;28.60;52.60;;;;;;20883;6733;122271;-74
2023/06/21 11:51:22;;;;;;;8.27;6.00;;;28.50;53.10;;;;;;20916;6721;117554;-75
2023/06/21 11:53:59;;;;;;;8.63;5.90;;;28.40;53.80;;;;;;20927;6721;116829;-79
2023/06/21 11:56:34;;;;;;;6.55;6.05;;;28.40;54.50;;;;;;20705;6721;276235;-73
2023/06/21 11:59:10;;;;;;;7.43;6.70;;;28.60;53.20;;;;;;20651;6721;336958;-76
2023/06/21 12:01:46;;;;;;;7.07;6.40;;;29.30;49.30;;;;;;20668;6721;278949;-76
2023/06/21 12:04:28;;;;;;;6.73;6.13;;;29.30;49.30;;;;;;20926;6721;117408;-76
2023/06/21 12:07:05;;;;;;;7.05;6.40;;;29.30;49.60;;;;;;20689;6721;306552;-76
2023/06/21 12:09:41;;;;;;;7.10;6.43;;;29.40;48.00;;;;;;20635;6721;327777;-75
2023/06/21 12:12:17;;;;;;;6.23;5.63;;;29.40;47.90;;;;;;20900;6721;116847;-74
2023/06/21 12:14:54;;;;;;;6.50;5.87;;;29.30;48.90;;;;;;20903;6721;121266;-75
2023/06/21 12:17:30;;;;;;;5.90;5.43;;;29.10;48.10;;;;;;20708;6721;309289;-75
2023/06/21 12:20:07;;;;;;;6.30;5.77;;;29.00;48.00;;;;;;20627;6721;280873;-75
2023/06/21 12:22:44;;;;;;;5.57;5.17;;;29.20;48.00;;;;;;20913;6721;117330;-76
2023/06/21 12:25:20;;;;;;;6.40;5.80;;;29.20;46.30;;;;;;20672;6736;277729;-75
2023/06/21 12:27:57;;;;;;;5.53;5.13;;;29.20;46.30;;;;;;20851;6747;122811;-75
2023/06/21 12:30:32;;;;;;;5.50;5.03;;;29.00;47.80;;;;;;20774;6719;117641;-75
2023/06/21 12:33:08;;;;;;;5.73;5.23;;;28.80;49.20;;;;;;20959;6717;116823;-75
2023/06/21 12:35:44;;;;;;;5.73;5.23;;;28.50;49.90;;;;;;20922;6723;117045;-76
2023/06/21 12:38:19;;;;;;;5.80;5.30;;;28.40;50.30;;;;;;20974;6717;116940;-76
2023/06/21 12:41:01;;;;;;;6.07;5.57;;;28.70;49.10;;;;;;20462;6792;281337;-75
2023/06/21 12:43:34;;;;;;;5.60;5.20;;;28.70;48.30;;;;;;20654;6736;277583;-77
2023/06/21 12:46:10;;;;;;;5.30;4.90;;;29.10;47.50;;;;;;20629;6747;277581;-77
2023/06/21 12:48:51;;;;;;;5.13;4.73;;;29.50;46.10;;;;;;20891;6717;123790;-76
2023/06/21 12:51:28;;;;;;;5.30;5.00;;;29.60;47.40;;;;;;20938;6717;116746;-77
2023/06/21 12:54:07;;;;;;;5.67;5.17;;;29.50;47.60;;;;;;20807;6759;118085;-76
2023/06/21 12:56:47;;;;;;;5.00;4.63;;;29.20;47.80;;;;;;20822;6744;123156;-77
2023/06/21 12:59:23;;;;;;;5.63;5.20;;;29.50;46.90;;;;;;20591;6744;278936;-77
2023/06/21 13:02:02;;;;;;;5.80;5.40;;;29.50;46.90;;;;;;20952;6715;118498;-75
2023/06/21 13:04:37;;;;;;;4.90;4.50;;;29.50;47.20;;;;;;20930;6715;117379;-75
2023/06/21 13:07:13;;;;;;;5.93;5.33;;;29.40;47.90;;;;;;20717;6714;277091;-76
2023/06/21 13:09:49;;;;;;;5.40;5.00;;;29.90;43.80;;;;;;20613;6715;278653;-75
2023/06/21 13:12:26;;;;;;;5.40;5.00;;;29.90;43.80;;;;;;20951;6715;120282;-77